Tiempo atmosférico en la estación meteorológica de Teror, Las Palmas (683 m.)



Fecha
DESCASC
Temp. máxima en grados centígrados (hora)
DESCASC
Temp. mínima en grados centígrados (hora)
DESCASC
Temp. media en grados centígrados
DESCASC
Racha de viento máxima en m/sg (hora)
DESCASC
Velocidad máxima media en intervalos de 10 minutos(hora)
DESCASC
Precipitaciones diarias en mm
DESCASC
Precipitaciones de 00:00 a 06:00 en mm
DESCASC
Precipitaciones de 06:00 a 12:00 en mm
DESCASC
Precipitaciones de 12:00 a 18:00 en mm
DESCASC
Precipitaciones de 18:00 a 24:00 en mm
DESCASC
29-10-2020 19.2 (13:00) 13.6 (01:10) 16.4 6.11 (13:10) 3.33 (15:00) 0 0 0 0 0
28-10-2020 17.7 (14:20) 13.9 (03:40) 15.8 5.83 (11:30) 3.33 (11:30) 0 0 0 0 0
27-10-2020 18.6 (13:50) 13.9 (00:00) 16.3 5.83 (12:40) 3.33 (15:10) 0.6 0 0.4 0.2 0
26-10-2020 20 (13:50) 13.7 (00:00) 16.8 5.56 (15:30) 3.06 (13:00) 0 0 0 0 0
25-10-2020 18.8 (11:50) 13.1 (00:00) 15.9 5 (13:20) 2.78 (13:20) 0 0 0 0 0
24-10-2020 20.5 (13:30) 12.1 (00:00) 16.3 6.39 (14:30) 3.89 (14:30) 0 0 0 0 0
23-10-2020 19.1 (12:10) 11 (00:00) 15.1 5.83 (12:10) 3.89 (12:10) 0.2 0.2 0 0 0
22-10-2020 17.9 (13:20) 12.4 (00:00) 15.1 8.61 (07:10) 3.89 (16:10) 45.8 30.8 14.4 0.4 0.2
21-10-2020 20.7 (10:50) 14 (00:00) 17.4 6.67 (15:10) 3.33 (13:20) 13.8 0 0 4.2 9.6
20-10-2020 27.9 (13:30) 17.1 (00:00) 22.5 16.11 (11:50) 5.83 (11:10) 0.6 0 0 0.4 0.2
19-10-2020 25.7 (14:50) 13.6 (00:00) 19.7 5.83 (15:00) 2.78 (15:00) 0 0 0 0 0
18-10-2020 22.6 (14:20) 12.1 (00:00) 17.4 6.67 (14:20) 3.61 (13:40) 0 0 0 0 0
17-10-2020 20.8 (11:50) 11.9 (00:00) 16.3 5.56 (11:40) 3.33 (11:30) 0 0 0 0 0
16-10-2020 22.5 (12:00) 15.2 (00:00) 18.8 6.11 (14:30) 3.06 (15:20) 0 0 0 0 0
15-10-2020 29.1 (11:10) 12.6 (00:00) 20.9 6.11 (14:40) 3.33 (14:40) 0 0 0 0 0
14-10-2020 29.6 (10:40) 13.2 (00:00) 21.4 4.72 (13:50) 2.5 (13:50) 0 0 0 0 0
13-10-2020 32.4 (10:20) 16.6 (00:00) 24.5 6.94 (11:30) 3.33 (11:10) 0 0 0 0 0
12-10-2020 33 (13:10) 14.1 (00:00) 23.6 10 (16:40) 5 (15:50) 0 0 0 0 0
11-10-2020 23.3 (14:10) 16.2 (00:00) 19.8 5 (14:10) 2.5 (14:50) 0 0 0 0 0
10-10-2020 21.9 (12:40) 15.4 (00:00) 18.6 5.56 (15:10) 3.06 (15:00) 0 0 0 0 0
09-10-2020 20.5 (16:30) 14.9 (00:00) 17.7 5.28 (05:50) 2.78 (15:20) 0.2 0 0.2 0 0
08-10-2020 26.6 (13:10) 15.5 (00:00) 21.1 5.56 (12:40) 3.06 (14:40) 0 0 0 0 0
07-10-2020 27.1 (10:50) 14.1 (00:00) 20.6 4.72 (16:40) 2.5 (13:10) 0 0 0 0 0
06-10-2020 18.7 (15:30) 15.6 (00:00) 17.2 4.17 (01:10) 2.5 (01:30) 2 1 0.4 0.6 0
05-10-2020 20.8 (13:10) 15.2 (00:00) 18 6.39 (13:30) 3.61 (13:10) 0.8 0.4 0.4 0 0
04-10-2020 18.4 (16:00) 15.4 (00:00) 16.9 7.5 (11:00) 3.89 (11:00) 21.4 4.2 12.6 3.8 0.8
03-10-2020 19.1 (14:30) 15.7 (00:00) 17.4 7.22 (13:50) 4.17 (00:50) 13.8 0.6 5.6 6.6 1
02-10-2020 20.4 (14:50) 14.8 (00:00) 17.6 11.11 (19:10) 4.17 (19:10) 7.4 1.4 0.2 2.8 3
01-10-2020 21 (13:40) 14.5 (00:00) 17.8 7.22 (23:20) 3.61 (13:30) 0.6 0 0.2 0 0.4
30-09-2020 22.7 (11:50) 14 (00:00) 18.4 6.11 (11:30) 3.33 (15:20) 0 0 0 0 0

Gráficas

Temp. máximas Temp. mínimas Temp. medias Precipitaciones Rachas de viento máximas Velocidades máximas media en intervalos de 10 minutos

Datos horarios

Fecha y hora oficial Temperatura (ºC) Velocidad del viento (km/h) Dirección del viento Racha (km/h) Dirección de racha Precipitación (mm) Presión (hPa) Tendencia (hPa) Humedad (%)
2020-10-29 23:00:00 15.6 6 Oeste 15 Oeste 0 -- -- 91
2020-10-29 22:00:00 14.7 7 Noroeste 17 Oeste 0 -- -- 96
2020-10-29 21:00:00 15.3 8 Noroeste 15 Noroeste 0 -- -- 96
2020-10-29 20:00:00 15.5 6 Norte 14 Norte 0 -- -- 97
2020-10-29 19:00:00 15.7 6 Noroeste 15 Norte 0 -- -- 96
2020-10-29 18:00:00 15.6 9 Norte 17 Noroeste 0 -- -- 95
2020-10-29 17:00:00 16.3 8 Norte 17 Norte 0 -- -- 90
2020-10-29 16:00:00 17.5 9 Norte 15 Noroeste 0 -- -- 84
2020-10-29 15:00:00 16.6 12 Noroeste 22 Norte 0 -- -- 85
2020-10-29 14:00:00 16.8 10 Norte 22 Norte 0 -- -- 86
2020-10-29 13:00:00 19.2 10 Norte 22 Nordeste 0 -- -- 74
2020-10-29 12:00:00 18.4 8 Nordeste 17 Norte 0 -- -- 79
2020-10-29 11:00:00 16.7 9 Norte 15 Norte 0 -- -- 87
2020-10-29 10:00:00 15.7 6 Norte 12 Norte 0 -- -- 90
2020-10-29 09:00:00 15.2 5 Norte 13 Norte 0 -- -- 91
2020-10-29 08:00:00 14.3 5 Noroeste 13 Nordeste 0 -- -- 96
2020-10-29 07:00:00 14.2 6 Noroeste 13 Noroeste 0 -- -- 98
2020-10-29 06:00:00 14.4 4 Norte 10 Nordeste 0 -- -- 98
2020-10-29 05:00:00 14.1 5 Noroeste 10 Noroeste 0 -- -- 97
2020-10-29 04:00:00 14.1 3 Oeste 12 Norte 0 -- -- 97
2020-10-29 03:00:00 14.2 4 Norte 8 Noroeste 0 -- -- 97
2020-10-29 02:00:00 13.8 4 Oeste 8 Noroeste 0 -- -- 96
2020-10-29 01:00:00 13.7 4 Oeste 14 Norte 0 -- -- 96
2020-10-29 00:00:00 14.2 8 Norte 16 Nordeste 0 -- -- 96
2020-10-28 23:00:00 14.3 5 Noroeste 10 Noroeste 0 -- -- 96
2020-10-28 22:00:00 14.4 7 Norte 15 Noroeste 0 -- -- 96
2020-10-28 21:00:00 14.2 7 Norte 15 Norte 0 -- -- 95
2020-10-28 20:00:00 14.8 8 Norte 13 Norte 0 -- -- 90
2020-10-28 19:00:00 14.7 4 Noroeste 14 Norte 0 -- -- 84
2020-10-28 18:00:00 15.2 7 Norte 17 Norte 0 -- -- 84
2020-10-28 17:00:00 15.3 9 Norte 14 Norte 0 -- -- 84
2020-10-28 16:00:00 16.1 8 Norte 18 Norte 0 -- -- 81
2020-10-28 15:00:00 16 10 Norte 19 Norte 0 -- -- 83
2020-10-28 14:00:00 17.2 6 Nordeste 17 Norte 0 -- -- 80
2020-10-28 13:00:00 17 8 Norte 19 Norte 0 -- -- 77
2020-10-28 12:00:00 15.7 10 Norte 21 Nordeste 0 -- -- 87
2020-10-28 11:00:00 15.6 6 Norte 16 Norte 0 -- -- 87
2020-10-28 10:00:00 14.8 8 Norte 17 Norte 0 -- -- 94
2020-10-28 09:00:00 14.1 5 Norte 15 Nordeste 0 -- -- 95
2020-10-28 08:00:00 14.4 8 Norte 15 Norte 0 -- -- 93
2020-10-28 07:00:00 14.3 5 Noroeste 10 Norte 0 -- -- 83
2020-10-28 06:00:00 14.2 4 Norte 12 Noroeste 0 -- -- 85
2020-10-28 05:00:00 14.2 4 Noroeste 9 Noroeste 0 -- -- 88
2020-10-28 04:00:00 14.1 4 Noroeste 12 Norte 0 -- -- 86
2020-10-28 03:00:00 14.2 5 Noroeste 13 Norte 0 -- -- 87
2020-10-28 02:00:00 14.3 5 Norte 12 Norte 0 -- -- 89
2020-10-28 01:00:00 14.4 8 Norte 15 Nordeste 0 -- -- 91
2020-10-28 00:00:00 14.4 3 Noroeste 8 Norte 0 -- -- 92
2020-10-27 23:00:00 14.6 4 Norte 10 Norte 0 -- -- 91
2020-10-27 22:00:00 14.6 5 Nordeste 12 Nordeste 0 -- -- 96
2020-10-27 21:00:00 14.5 3 Oeste 9 Nordeste 0 -- -- 96
2020-10-27 20:00:00 15.1 4 Este 16 Nordeste 0 -- -- 96
2020-10-27 19:00:00 15 4 Nordeste 14 Noroeste 0 -- -- 96
2020-10-27 18:00:00 15.6 5 Nordeste 13 Este 0 -- -- 93
2020-10-27 17:00:00 16 5 Norte 13 Nordeste 0 -- -- 89
2020-10-27 16:00:00 17.3 9 Nordeste 18 Norte 0 -- -- 83
2020-10-27 15:00:00 17.9 9 Nordeste 16 Nordeste 0 -- -- 84
2020-10-27 14:00:00 17.7 9 Norte 18 Norte 0.2 -- -- 78
2020-10-27 13:00:00 17.4 10 Norte 21 Nordeste 0 -- -- 80
2020-10-27 12:00:00 16.3 10 Norte 20 Norte 0 -- -- 89
2020-10-27 11:00:00 15.8 9 Norte 18 Norte 0.2 -- -- 97
2020-10-27 10:00:00 16.1 9 Norte 16 Nordeste 0.2 -- -- 95
2020-10-27 09:00:00 16 5 Norte 9 Norte 0 -- -- 91
2020-10-27 08:00:00 15.5 4 Sudeste 11 Oeste 0 -- -- 87
2020-10-27 07:00:00 14 5 Oeste 9 Sudoeste 0 -- -- 91
2020-10-27 06:00:00 14.7 3 Oeste 8 Sudeste 0 -- -- 95
2020-10-27 05:00:00 15 4 Este 10 Este 0 -- -- 91
2020-10-27 04:00:00 14.8 3 Sudoeste 6 Sur 0 -- -- 95
2020-10-27 03:00:00 14.9 3 Sudeste 10 Sur 0 -- -- 95
2020-10-27 02:00:00 14.9 0 Calma 8 Nordeste 0 -- -- 94
2020-10-27 01:00:00 14.9 3 Sur 9 Oeste 0 -- -- 88
2020-10-27 00:00:00 15.2 4 Sudeste 10 Sudeste 0 -- -- 89
2020-10-26 23:00:00 15.2 6 Sudeste 11 Sudeste 0 -- -- 90
2020-10-26 22:00:00 15 3 Sur 11 Sudoeste 0 -- -- 91
2020-10-26 21:00:00 14.7 2 Sudeste 8 Nordeste 0 -- -- 95
2020-10-26 20:00:00 15.2 2 Sudoeste 10 Oeste 0 -- -- 91
2020-10-26 19:00:00 14.4 4 Oeste 7 Norte 0 -- -- 94
2020-10-26 18:00:00 15.8 5 Norte 15 Nordeste 0 -- -- 91
2020-10-26 17:00:00 17.1 6 Nordeste 18 Norte 0 -- -- 79
2020-10-26 16:00:00 17.6 9 Nordeste 20 Este 0 -- -- 81
2020-10-26 15:00:00 19.2 11 Nordeste 18 Este 0 -- -- 71
2020-10-26 14:00:00 19.3 7 Nordeste 17 Nordeste 0 -- -- 68
2020-10-26 13:00:00 19.2 11 Nordeste 18 Este 0 -- -- 73
2020-10-26 12:00:00 18 9 Nordeste 17 Nordeste 0 -- -- 77
2020-10-26 11:00:00 18 8 Nordeste 17 Este 0 -- -- 75
2020-10-26 10:00:00 17.6 8 Este 14 Nordeste 0 -- -- 78
2020-10-26 09:00:00 15.4 2 Nordeste 10 Este 0 -- -- 88
2020-10-26 08:00:00 14.5 5 Nordeste 11 Nordeste 0 -- -- 92
2020-10-26 07:00:00 14.2 2 Sudeste 6 Sur 0 -- -- 94
2020-10-26 06:00:00 14.1 0 Calma 6 Nordeste 0 -- -- 94
2020-10-26 05:00:00 14.1 0 Calma 10 Este 0 -- -- 94
2020-10-26 04:00:00 14.4 3 Norte 7 Nordeste 0 -- -- 93
2020-10-26 03:00:00 14.4 2 Nordeste 9 Nordeste 0 -- -- 93
2020-10-26 02:00:00 14.6 3 Este 9 Sudeste 0 -- -- 92
2020-10-26 01:00:00 14.4 2 Sudeste 12 Nordeste 0 -- -- 93
2020-10-26 00:00:00 14.6 4 Nordeste 9 Este 0 -- -- 93
2020-10-25 23:00:00 14.7 3 Este 9 Nordeste 0 -- -- 92
2020-10-25 22:00:00 14.7 0 Calma 10 Nordeste 0 -- -- 92
2020-10-25 21:00:00 14.9 3 Norte 9 Norte 0 -- -- 91
2020-10-25 20:00:00 14.9 0 Calma 10 Norte 0 -- -- 92
2020-10-25 19:00:00 15 5 Nordeste 10 Norte 0 -- -- 92
2020-10-25 18:00:00 15.2 4 Nordeste 13 Norte 0 -- -- 90
2020-10-25 17:00:00 15.5 9 Nordeste 15 Nordeste 0 -- -- 88
2020-10-25 16:00:00 16.3 7 Norte 15 Norte 0 -- -- 84
2020-10-25 15:00:00 16.9 7 Norte 15 Nordeste 0 -- -- 81
2020-10-25 14:00:00 17.2 8 Nordeste 18 Nordeste 0 -- -- 82
2020-10-25 13:00:00 17.9 9 Norte 15 Nordeste 0 -- -- 78
2020-10-25 12:00:00 18.1 8 Norte 14 Nordeste 0 -- -- 76
2020-10-25 11:00:00 17.9 7 Este 16 Norte 0 -- -- 78
2020-10-25 10:00:00 15.7 7 Norte 13 Nordeste 0 -- -- 85
2020-10-25 09:00:00 15.6 4 Norte 12 Norte 0 -- -- 85
2020-10-25 08:00:00 14.3 2 Norte 5 Norte 0 -- -- 93
2020-10-25 07:00:00 13.7 2 Nordeste 6 Nordeste 0 -- -- 95
2020-10-25 06:00:00 13.2 2 Sudeste 5 Sudeste 0 -- -- 95
2020-10-25 05:00:00 13.4 3 Sur 7 Este 0 -- -- 95
2020-10-25 04:00:00 13.7 0 Calma 6 Sudeste 0 -- -- 93
2020-10-25 03:00:00 13.6 2 Sur 9 Este 0 -- -- 90
2020-10-25 02:00:00 14.5 5 Este 10 Este 0 -- -- 89
2020-10-25 01:00:00 14.7 5 Sudeste 11 Nordeste 0 -- -- 91
2020-10-25 00:00:00 15 4 Nordeste 10 Norte 0 -- -- 90
2020-10-24 23:00:00 15.1 4 Este 12 Este 0 -- -- 90
2020-10-24 22:00:00 15.2 3 Nordeste 10 Nordeste 0 -- -- 90
2020-10-24 21:00:00 15.2 3 Sudeste 9 Nordeste 0 -- -- 91
2020-10-24 20:00:00 15.2 5 Nordeste 11 Nordeste 0 -- -- 89
2020-10-24 19:00:00 15.8 6 Nordeste 15 Nordeste 0 -- -- 87
2020-10-24 18:00:00 16.3 7 Nordeste 15 Este 0 -- -- 84
2020-10-24 17:00:00 17 9 Nordeste 18 Nordeste 0 -- -- 81
2020-10-24 16:00:00 17.9 11 Nordeste 21 Nordeste 0 -- -- 74
2020-10-24 15:00:00 19.5 10 Este 23 Nordeste 0 -- -- 67
2020-10-24 14:00:00 19.3 8 Este 21 Este 0 -- -- 69
2020-10-24 13:00:00 18 11 Este 22 Este 0 -- -- 70
2020-10-24 12:00:00 18.4 11 Este 20 Sudeste 0 -- -- 70
2020-10-24 11:00:00 15.1 5 Este 17 Este 0 -- -- 89
2020-10-24 10:00:00 14.9 3 Sudeste 9 Sur 0 -- -- 85
2020-10-24 09:00:00 13.8 3 Sudeste 8 Sudeste 0 -- -- 89
2020-10-24 08:00:00 13 4 Sudeste 10 Sudeste 0 -- -- 92
2020-10-24 07:00:00 13.4 4 Sudeste 11 Sur 0 -- -- 89
2020-10-24 06:00:00 12.6 6 Sudoeste 8 Sudoeste 0 -- -- 95
2020-10-24 05:00:00 12.8 3 Sudoeste 9 Sur 0 -- -- 93
2020-10-24 04:00:00 12.9 4 Sur 9 Sudoeste 0 -- -- 94
2020-10-24 03:00:00 14 4 Este 12 Sudeste 0 -- -- 93
2020-10-24 02:00:00 13.8 4 Sur 11 Sur 0 -- -- 86
2020-10-24 01:00:00 13.8 6 Sudeste 14 Este 0 -- -- 91
2020-10-24 00:00:00 13.9 6 Sudeste 12 Este 0 -- -- 92
2020-10-23 23:00:00 14.4 6 Este 15 Este 0 -- -- 91
2020-10-23 22:00:00 14.1 4 Sudeste 14 Sudeste 0 -- -- 89
2020-10-23 21:00:00 13.4 2 Este 12 Este 0 -- -- 90
2020-10-23 20:00:00 14.2 4 Este 14 Este 0 -- -- 87
2020-10-23 19:00:00 15.6 6 Este 14 Nordeste 0 -- -- 83
2020-10-23 18:00:00 16.2 9 Nordeste 18 Nordeste 0 -- -- 79
2020-10-23 17:00:00 17 9 Nordeste 20 Este 0 -- -- 73
2020-10-23 16:00:00 16.8 9 Nordeste 19 Nordeste 0 -- -- 79
2020-10-23 15:00:00 17 6 Nordeste 18 Norte 0 -- -- 82
2020-10-23 14:00:00 17.7 9 Nordeste 19 Nordeste 0 -- -- 78
2020-10-23 13:00:00 16.6 8 Nordeste 21 Nordeste 0 -- -- 77
2020-10-23 12:00:00 18.2 10 Este 20 Nordeste 0 -- -- 74
2020-10-23 11:00:00 17.2 13 Nordeste 19 Este 0 -- -- 78
2020-10-23 10:00:00 17.4 5 Este 10 Sudeste 0 -- -- 75
2020-10-23 09:00:00 14.9 3 Sudoeste 6 Oeste 0 -- -- 87
2020-10-23 08:00:00 11.4 4 Oeste 8 Oeste 0 -- -- 96
2020-10-23 07:00:00 12 5 Oeste 9 Norte 0 -- -- 95
2020-10-23 06:00:00 12.5 6 Noroeste 8 Noroeste 0 -- -- 97
2020-10-23 05:00:00 12.4 4 Oeste 7 Noroeste 0 -- -- 97
2020-10-23 04:00:00 12.5 5 Oeste 9 Noroeste 0.2 -- -- 97
2020-10-23 03:00:00 12.6 5 Oeste 8 Oeste 0 -- -- 97
2020-10-23 02:00:00 11.9 5 Oeste 8 Oeste 0 -- -- 97
2020-10-23 01:00:00 12.7 5 Noroeste 8 Noroeste 0 -- -- 96
2020-10-23 00:00:00 13.2 6 Noroeste 11 Noroeste 0 -- -- 93
2020-10-22 23:00:00 14 5 Noroeste 9 Noroeste 0 -- -- 95
2020-10-22 22:00:00 13.9 3 Norte 16 Noroeste 0.2 -- -- 95
2020-10-22 21:00:00 12.6 5 Oeste 8 Oeste 0 -- -- 94
2020-10-22 20:00:00 14.5 4 Noroeste 13 Norte 0 -- -- 88
2020-10-22 19:00:00 15.4 7 Norte 18 Noroeste 0 -- -- 85
2020-10-22 18:00:00 15.8 8 Norte 19 Noroeste 0 -- -- 82
2020-10-22 17:00:00 16.3 12 Norte 22 Norte 0 -- -- 78
2020-10-22 16:00:00 17.3 12 Norte 23 Noroeste 0 -- -- 78
2020-10-22 15:00:00 17.2 13 Norte 24 Norte 0 -- -- 79
2020-10-22 14:00:00 16.3 13 Norte 26 Norte 0 -- -- 85
2020-10-22 13:00:00 16.5 9 Norte 20 Norte 0.4 -- -- 84
2020-10-22 12:00:00 15.8 7 Noroeste 26 Noroeste 0 -- -- 90
2020-10-22 11:00:00 15.6 11 Noroeste 23 Oeste 1.8 -- -- 97
2020-10-22 10:00:00 14.4 8 Noroeste 21 Oeste 2.8 -- -- 97
2020-10-22 09:00:00 14.3 6 Noroeste 23 Oeste 5.4 -- -- 98
2020-10-22 08:00:00 14.3 8 Noroeste 31 Noroeste 1.4 -- -- 98
2020-10-22 07:00:00 14.5 8 Noroeste 24 Noroeste 3 -- -- 97
2020-10-22 06:00:00 14.3 6 Oeste 24 Noroeste 2.6 -- -- 95
2020-10-22 05:00:00 14.3 8 Oeste 19 Oeste 0.6 -- -- 95
2020-10-22 04:00:00 14.5 3 Sur 18 Noroeste 0.6 -- -- 96
2020-10-22 03:00:00 14.5 9 Noroeste 29 Noroeste 2 -- -- 96
2020-10-22 02:00:00 14.2 4 Oeste 18 Noroeste 4.6 -- -- 98
2020-10-22 01:00:00 14.4 9 Noroeste 17 Noroeste 20.4 -- -- 98
2020-10-22 00:00:00 14.8 8 Noroeste 22 Oeste 7.2 -- -- 97
2020-10-21 23:00:00 15.3 6 Noroeste 17 Noroeste 0.2 -- -- 98
2020-10-21 22:00:00 15.5 6 Noroeste 13 Noroeste 0 -- -- 98
2020-10-21 21:00:00 15.8 4 Norte 9 Noroeste 0.2 -- -- 98
2020-10-21 20:00:00 16 3 Noroeste 7 Norte 0.8 -- -- 97
2020-10-21 19:00:00 16.1 0 Calma 9 Oeste 1.2 -- -- 96
2020-10-21 18:00:00 16.1 2 Norte 22 Noroeste 0.6 -- -- 97
2020-10-21 17:00:00 15.8 8 Norte 20 Noroeste 1 -- -- 96
2020-10-21 16:00:00 16.6 7 Norte 24 Noroeste 1 -- -- 94
2020-10-21 15:00:00 16.8 9 Noroeste 19 Noroeste 0.8 -- -- 92
2020-10-21 14:00:00 17.7 9 Norte 19 Nordeste 0.8 -- -- 85
2020-10-21 13:00:00 19.1 10 Norte 18 Norte 0 -- -- 79
2020-10-21 12:00:00 18.2 9 Norte 17 Nordeste 0 -- -- 87
2020-10-21 11:00:00 20.6 6 Nordeste 12 Nordeste 0 -- -- 70
2020-10-21 10:00:00 19.6 4 Este 10 Sudeste 0 -- -- 75
2020-10-21 09:00:00 16.3 0 Calma 6 Sudoeste 0 -- -- 97
2020-10-21 08:00:00 14.6 3 Sudoeste 7 Sudoeste 0 -- -- 96
2020-10-21 07:00:00 15.6 3 Sudoeste 5 Sur 0 -- -- 96
2020-10-21 06:00:00 15.4 3 Noroeste 5 Noroeste 0 -- -- 97
2020-10-21 05:00:00 15.6 0 Calma 10 Noroeste 0 -- -- 96
2020-10-21 04:00:00 15.2 5 Noroeste 7 Oeste 0 -- -- 94
2020-10-21 03:00:00 16.4 4 Noroeste 9 Nordeste 0 -- -- 94
2020-10-21 02:00:00 16.6 3 Noroeste 17 Noroeste 0 -- -- 95
2020-10-21 01:00:00 17.1 3 Norte 18 Noroeste 0 -- -- 95
2020-10-21 00:00:00 17.2 4 Noroeste 11 Noroeste 0 -- -- 94
2020-10-20 23:00:00 17.4 6 Norte 17 Norte 0 -- -- 94
2020-10-20 22:00:00 17.2 10 Noroeste 18 Noroeste 0 -- -- 95
2020-10-20 21:00:00 18 8 Noroeste 18 Noroeste 0 -- -- 96
2020-10-20 20:00:00 18.1 7 Noroeste 22 Noroeste 0 -- -- 96
2020-10-20 19:00:00 18.8 7 Norte 23 Noroeste 0.2 -- -- 94
2020-10-20 18:00:00 20.5 13 Noroeste 23 Noroeste 0 -- -- 85
2020-10-20 17:00:00 24.2 8 Este 32 Sur 0 -- -- 68
2020-10-20 16:00:00 22.8 11 Sudeste 53 Sur 0.4 -- -- 68
2020-10-20 15:00:00 25.7 16 Sur 44 Oeste 0 -- -- 52
2020-10-20 14:00:00 27.4 11 Sur 43 Sudoeste 0 -- -- 46
2020-10-20 13:00:00 25.5 13 Sudoeste 58 Sur 0 -- -- 45
2020-10-20 12:00:00 23.6 17 Sudoeste 58 Sur 0 -- -- 48
2020-10-20 11:00:00 23.4 18 Sudoeste 42 Sudoeste 0 -- -- 48
2020-10-20 10:00:00 24.8 9 Sur 34 Sudeste 0 -- -- 40
2020-10-20 09:00:00 24.5 9 Sur 30 Sur 0 -- -- 39
2020-10-20 08:00:00 23.7 6 Nordeste 23 Sudoeste 0 -- -- 40
2020-10-20 07:00:00 24.3 8 Sur 27 Sudoeste 0 -- -- 39
2020-10-20 06:00:00 24.3 9 Sur 32 Sudoeste 0 -- -- 38
2020-10-20 05:00:00 25.2 13 Sur 39 Sudoeste 0 -- -- 35
2020-10-20 04:00:00 24.6 6 Sudoeste 25 Oeste 0 -- -- 41
2020-10-20 03:00:00 21.6 5 Sudoeste 14 Oeste 0 -- -- 56
2020-10-20 02:00:00 18.8 6 Oeste 12 Oeste 0 -- -- 75
2020-10-20 01:00:00 18.6 6 Oeste 9 Oeste 0 -- -- 76
2020-10-20 00:00:00 19 7 Oeste 15 Oeste 0 -- -- 74
2020-10-19 23:00:00 17.9 0 Calma 8 Oeste 0 -- -- 82
2020-10-19 22:00:00 18 4 Sudoeste 8 Oeste 0 -- -- 81
2020-10-19 21:00:00 18.4 5 Oeste 9 Oeste 0 -- -- 80
2020-10-19 20:00:00 18.9 5 Oeste 13 Noroeste 0 -- -- 81
2020-10-19 19:00:00 21.2 6 Noroeste 16 Noroeste 0 -- -- 79
2020-10-19 18:00:00 24.5 5 Norte 12 Norte 0 -- -- 66
2020-10-19 17:00:00 24.4 6 Nordeste 14 Nordeste 0 -- -- 67
2020-10-19 16:00:00 23.5 7 Norte 18 Nordeste 0 -- -- 69
2020-10-19 15:00:00 25.6 10 Nordeste 21 Nordeste 0 -- -- 63
2020-10-19 14:00:00 23.6 7 Nordeste 17 Nordeste 0 -- -- 71
2020-10-19 13:00:00 24.3 8 Nordeste 18 Nordeste 0 -- -- 67
2020-10-19 12:00:00 23.8 6 Norte 13 Nordeste 0 -- -- 68
2020-10-19 11:00:00 22.4 7 Nordeste 12 Este 0 -- -- 72
2020-10-19 10:00:00 21.8 5 Este 11 Este 0 -- -- 68
2020-10-19 09:00:00 19.2 2 Sudeste 9 Noroeste 0 -- -- 75
2020-10-19 08:00:00 15 4 Noroeste 12 Oeste 0 -- -- 89
2020-10-19 07:00:00 15.2 4 Noroeste 10 Oeste 0 -- -- 89
2020-10-19 06:00:00 14.8 4 Oeste 11 Oeste 0 -- -- 90
2020-10-19 05:00:00 14.2 3 Oeste 9 Noroeste 0 -- -- 92
2020-10-19 04:00:00 14.4 6 Sudoeste 11 Oeste 0 -- -- 90
2020-10-19 03:00:00 13.7 3 Oeste 10 Oeste 0 -- -- 92
2020-10-19 02:00:00 13.9 5 Oeste 8 Oeste 0 -- -- 92
2020-10-19 01:00:00 13.6 3 Oeste 10 Oeste 0 -- -- 95
2020-10-19 00:00:00 13.9 4 Sudoeste 6 Sudoeste 0 -- -- 98
2020-10-18 23:00:00 14.4 3 Sudoeste 7 Oeste 0 -- -- 97
2020-10-18 22:00:00 15 3 Oeste 9 Sudoeste 0 -- -- 96
2020-10-18 21:00:00 15 2 Oeste 7 Oeste 0 -- -- 94
2020-10-18 20:00:00 16.8 0 Calma 8 Norte 0 -- -- 89
2020-10-18 19:00:00 18 4 Norte 9 Nordeste 0 -- -- 87
2020-10-18 18:00:00 18.7 4 Nordeste 13 Norte 0 -- -- 83
2020-10-18 17:00:00 19.3 6 Nordeste 17 Nordeste 0 -- -- 81
2020-10-18 16:00:00 20 8 Norte 19 Norte 0 -- -- 75
2020-10-18 15:00:00 21 10 Norte 24 Norte 0 -- -- 71
2020-10-18 14:00:00 21.2 10 Norte 22 Norte 0 -- -- 70
2020-10-18 13:00:00 22.4 10 Nordeste 16 Nordeste 0 -- -- 62
2020-10-18 12:00:00 20.4 9 Nordeste 17 Nordeste 0 -- -- 67
2020-10-18 11:00:00 21.5 5 Sudeste 12 Sudeste 0 -- -- 61
2020-10-18 10:00:00 19.7 2 Sudoeste 5 Sudoeste 0 -- -- 69
2020-10-18 09:00:00 14.1 4 Sudoeste 8 Noroeste 0 -- -- 93
2020-10-18 08:00:00 13.3 7 Noroeste 10 Noroeste 0 -- -- 94
2020-10-18 07:00:00 13.5 5 Sur 9 Sudoeste 0 -- -- 91
2020-10-18 06:00:00 13.9 5 Sudoeste 21 Oeste 0 -- -- 89
2020-10-18 05:00:00 14.6 6 Noroeste 12 Oeste 0 -- -- 91
2020-10-18 04:00:00 13.2 5 Oeste 8 Oeste 0 -- -- 99
2020-10-18 03:00:00 12.6 4 Oeste 8 Oeste 0 -- -- 98
2020-10-18 02:00:00 13.6 4 Oeste 8 Noroeste 0 -- -- 98
2020-10-18 01:00:00 13.9 4 Noroeste 8 Noroeste 0 -- -- 98
2020-10-18 00:00:00 12.1 3 Oeste 6 Oeste 0 -- -- 99
2020-10-17 23:00:00 12.4 4 Oeste 5 Oeste 0 -- -- 97
2020-10-17 22:00:00 13.1 4 Sudoeste 5 Sur 0 -- -- 95
2020-10-17 21:00:00 13.8 2 Sudoeste 5 Sur 0 -- -- 93
2020-10-17 20:00:00 14.8 2 Noroeste 8 Sudeste 0 -- -- 89
2020-10-17 19:00:00 16.4 3 Este 8 Este 0 -- -- 85
2020-10-17 18:00:00 16.7 4 Este 9 Nordeste 0 -- -- 85
2020-10-17 17:00:00 16.8 3 Nordeste 8 Este 0 -- -- 85
2020-10-17 16:00:00 16.7 4 Nordeste 11 Este 0 -- -- 83
2020-10-17 15:00:00 16.6 5 Este 15 Este 0 -- -- 86
2020-10-17 14:00:00 17.4 7 Este 17 Nordeste 0 -- -- 83
2020-10-17 13:00:00 18.8 8 Sudeste 19 Este 0 -- -- 77
2020-10-17 12:00:00 20.1 10 Este 20 Nordeste 0 -- -- 75
2020-10-17 11:00:00 20.7 7 Este 16 Nordeste 0 -- -- 66
2020-10-17 10:00:00 17.5 6 Nordeste 12 Nordeste 0 -- -- 76
2020-10-17 09:00:00 15.4 5 Sudoeste 10 Sudoeste 0 -- -- 85
2020-10-17 08:00:00 13.2 4 Sudoeste 6 Sudoeste 0 -- -- 97
2020-10-17 07:00:00 14.2 0 Calma 5 Sur 0 -- -- 97
2020-10-17 06:00:00 14.6 2 Sur 6 Sudoeste 0 -- -- 96
2020-10-17 05:00:00 15.1 3 Sudeste 6 Este 0 -- -- 96
2020-10-17 04:00:00 15.2 3 Nordeste 8 Este 0 -- -- 96
2020-10-17 03:00:00 15.3 5 Este 9 Nordeste 0 -- -- 96
2020-10-17 02:00:00 15.5 4 Nordeste 10 Este 0 -- -- 95
2020-10-17 01:00:00 15.6 4 Este 9 Este 0 -- -- 94
2020-10-17 00:00:00 15.6 5 Nordeste 12 Este 0 -- -- 94
2020-10-16 23:00:00 15.6 5 Este 14 Nordeste 0 -- -- 94
2020-10-16 22:00:00 15.9 6 Nordeste 14 Nordeste 0 -- -- 94
2020-10-16 21:00:00 15.9 6 Nordeste 12 Norte 0 -- -- 92
2020-10-16 20:00:00 16.1 8 Norte 13 Nordeste 0 -- -- 92
2020-10-16 19:00:00 17 5 Norte 14 Norte 0 -- -- 86
2020-10-16 18:00:00 17.4 8 Nordeste 15 Nordeste 0 -- -- 81
2020-10-16 17:00:00 17.9 9 Nordeste 17 Nordeste 0 -- -- 84
2020-10-16 16:00:00 20 8 Nordeste 19 Este 0 -- -- 73
2020-10-16 15:00:00 21.1 8 Nordeste 22 Nordeste 0 -- -- 69
2020-10-16 14:00:00 22.3 10 Nordeste 19 Nordeste 0 -- -- 67
2020-10-16 13:00:00 21.3 11 Nordeste 19 Este 0 -- -- 68
2020-10-16 12:00:00 22.5 8 Este 18 Nordeste 0 -- -- 65
2020-10-16 11:00:00 21.5 8 Este 17 Este 0 -- -- 68
2020-10-16 10:00:00 17.4 6 Sur 12 Sudeste 0 -- -- 84
2020-10-16 09:00:00 15.8 6 Sudeste 9 Sudeste 0 -- -- 92
2020-10-16 08:00:00 15.4 4 Sur 14 Sudeste 0 -- -- 94
2020-10-16 07:00:00 15.7 5 Sudeste 12 Sudeste 0 -- -- 96
2020-10-16 06:00:00 16 5 Este 12 Este 0 -- -- 96
2020-10-16 05:00:00 16 5 Sudeste 10 Sudeste 0 -- -- 94
2020-10-16 04:00:00 16.1 5 Este 12 Sudeste 0 -- -- 93
2020-10-16 03:00:00 16.1 5 Sudeste 13 Sudeste 0 -- -- 93
2020-10-16 02:00:00 16.3 6 Sudeste 13 Sudeste 0 -- -- 95
2020-10-16 01:00:00 16.4 6 Sudeste 12 Sudeste 0 -- -- 91
2020-10-16 00:00:00 16.6 6 Sudeste 10 Este 0 -- -- 94
2020-10-15 23:00:00 16.5 5 Sudeste 10 Este 0 -- -- 93
2020-10-15 22:00:00 16.1 5 Sur 12 Sudeste 0 -- -- 94
2020-10-15 21:00:00 16.2 5 Sudeste 8 Este 0 -- -- 95
2020-10-15 20:00:00 15.8 0 Calma 8 Nordeste 0 -- -- 91
2020-10-15 19:00:00 18.7 3 Este 10 Nordeste 0 -- -- 82
2020-10-15 18:00:00 22.9 4 Nordeste 12 Nordeste 0 -- -- 66
2020-10-15 17:00:00 23.7 5 Este 13 Nordeste 0 -- -- 64
2020-10-15 16:00:00 23.3 7 Este 18 Este 0 -- -- 65
2020-10-15 15:00:00 22.1 7 Nordeste 22 Nordeste 0 -- -- 68
2020-10-15 14:00:00 25.6 7 Nordeste 13 Este 0 -- -- 57
2020-10-15 13:00:00 24.4 8 Nordeste 15 Nordeste 0 -- -- 59
2020-10-15 12:00:00 22.6 11 Nordeste 18 Nordeste 0 -- -- 65
2020-10-15 11:00:00 27.3 4 Sudeste 18 Sur 0 -- -- 18
2020-10-15 10:00:00 18.3 6 Este 13 Este 0 -- -- 83
2020-10-15 09:00:00 16.1 4 Sur 8 Sur 0 -- -- 96
2020-10-15 08:00:00 14 6 Noroeste 9 Norte 0 -- -- 99
2020-10-15 07:00:00 13.8 4 Sudoeste 8 Sudeste 0 -- -- 97
2020-10-15 06:00:00 14.5 4 Sur 7 Sudoeste 0 -- -- 97
2020-10-15 05:00:00 13.9 5 Sudoeste 10 Sudoeste 0 -- -- 97
2020-10-15 04:00:00 14.1 6 Sudoeste 9 Sudoeste 0 -- -- 97
2020-10-15 03:00:00 13.7 4 Sudoeste 9 Sur 0 -- -- 95
2020-10-15 02:00:00 13.5 3 Sur 10 Sur 0 -- -- 93
2020-10-15 01:00:00 14.7 4 Sur 6 Sudoeste 0 -- -- 94
2020-10-15 00:00:00 13.8 3 Sur 6 Sudoeste 0 -- -- 77
2020-10-14 23:00:00 13.4 2 Oeste 10 Oeste 0 -- -- 51
2020-10-14 22:00:00 14.3 6 Sudoeste 11 Sudoeste 0 -- -- 84
2020-10-14 21:00:00 15.2 4 Sudoeste 6 Sur 0 -- -- 94
2020-10-14 20:00:00 15.9 3 Sur 7 Nordeste 0 -- -- 89
2020-10-14 19:00:00 18.8 5 Nordeste 8 Nordeste 0 -- -- 75
2020-10-14 18:00:00 22.9 3 Sudeste 11 Nordeste 0 -- -- 56
2020-10-14 17:00:00 23.3 5 Nordeste 13 Nordeste 0 -- -- 57
2020-10-14 16:00:00 25 7 Este 15 Este 0 -- -- 57
2020-10-14 15:00:00 25 9 Nordeste 14 Este 0 -- -- 57
2020-10-14 14:00:00 25.5 8 Nordeste 17 Nordeste 0 -- -- 56
2020-10-14 13:00:00 25.6 8 Nordeste 15 Nordeste 0 -- -- 55
2020-10-14 12:00:00 25 8 Nordeste 13 Este 0 -- -- 57
2020-10-14 11:00:00 26 5 Nordeste 9 Nordeste 0 -- -- 53
2020-10-14 10:00:00 28.4 4 Este 7 Este 0 -- -- 21
2020-10-14 09:00:00 21.6 3 Sur 9 Oeste 0 -- -- 32
2020-10-14 08:00:00 17.9 3 Sudoeste 8 Sudoeste 0 -- -- 30
2020-10-14 07:00:00 18.6 5 Sudoeste 9 Sudoeste 0 -- -- 26
2020-10-14 06:00:00 16.6 5 Sudoeste 8 Sudoeste 0 -- -- 23
2020-10-14 05:00:00 18.1 6 Sudoeste 10 Sudoeste 0 -- -- 10
2020-10-14 04:00:00 17.6 4 Sur 8 Sur 0 -- -- 25
2020-10-14 03:00:00 18.7 4 Sur 9 Sudeste 0 -- -- 23
2020-10-14 02:00:00 19.1 5 Sur 10 Sur 0 -- -- 23
2020-10-14 01:00:00 17.8 7 Sudoeste 10 Sudoeste 0 -- -- 28
2020-10-14 00:00:00 18.2 5 Sur 9 Sudoeste 0 -- -- 38
2020-10-13 23:00:00 16.6 3 Sudoeste 6 Sudoeste 0 -- -- 55
2020-10-13 22:00:00 18.7 0 Calma 9 Sudoeste 0 -- -- 46
2020-10-13 21:00:00 19.4 5 Sudoeste 9 Sudoeste 0 -- -- 46
2020-10-13 20:00:00 19.5 3 Sur 8 Sudoeste 0 -- -- 48
2020-10-13 19:00:00 23.1 0 Calma 5 Este 0 -- -- 64
2020-10-13 18:00:00 28.3 2 Este 8 Este 0 -- -- 47
2020-10-13 17:00:00 28.9 4 Este 9 Este 0 -- -- 47
2020-10-13 16:00:00 27.8 5 Este 15 Este 0 -- -- 44
2020-10-13 15:00:00 28 5 Nordeste 13 Nordeste 0 -- -- 47
2020-10-13 14:00:00 28.8 6 Nordeste 15 Este 0 -- -- 47
2020-10-13 13:00:00 28.2 5 Este 11 Este 0 -- -- 52
2020-10-13 12:00:00 29.1 5 Este 25 Este 0 -- -- 43
2020-10-13 11:00:00 31 9 Sudeste 18 Sudeste 0 -- -- 27
2020-10-13 10:00:00 -- -- -- -- -- -- -- -- --
2020-10-13 09:00:00 -- -- -- -- -- -- -- -- --
2020-10-13 08:00:00 24.2 6 Sudoeste 12 Sudoeste 0 -- -- 27
2020-10-13 07:00:00 24.1 7 Sudoeste 11 Sur 0 -- -- 26
2020-10-13 06:00:00 24.3 7 Sudoeste 12 Sudoeste 0 -- -- 27
2020-10-13 05:00:00 22.7 5 Sudoeste 9 Sudoeste 0 -- -- 32
2020-10-13 04:00:00 22 3 Sudoeste 7 Sudoeste 0 -- -- 32
2020-10-13 03:00:00 -- -- -- -- -- -- -- -- --
2020-10-13 02:00:00 21.3 5 Sur 10 Sudoeste 0 -- -- 37
2020-10-13 01:00:00 20.8 4 Sur 9 Sudoeste 0 -- -- 40
2020-10-13 00:00:00 -- -- -- -- -- -- -- -- --
2020-10-12 23:00:00 25 7 Sudoeste 15 Sudoeste 0 -- -- 29
2020-10-12 22:00:00 24.5 6 Sudoeste 13 Sudoeste 0 -- -- 29
2020-10-12 21:00:00 24.5 7 Sudoeste 11 Sur 0 -- -- 29
2020-10-12 20:00:00 24.8 6 Sudoeste 13 Sudeste 0 -- -- 29
2020-10-12 19:00:00 27.7 5 Sudeste 23 Sudeste 0 -- -- 23
2020-10-12 18:00:00 30.5 12 Sudeste 27 Sudeste 0 -- -- 21
2020-10-12 17:00:00 -- -- -- -- -- -- -- -- --
2020-10-12 16:00:00 31 16 Sudeste 31 Sudeste 0 -- -- 22
2020-10-12 15:00:00 32.3 15 Sudeste 26 Este 0 -- -- 22
2020-10-12 14:00:00 32.5 15 Este 35 Nordeste 0 -- -- 21
2020-10-12 13:00:00 32.5 14 Sudeste 34 Sudeste 0 -- -- 21
2020-10-12 12:00:00 31.8 15 Sudeste 28 Este 0 -- -- 21
2020-10-12 11:00:00 31.1 14 Sudeste 23 Sudeste 0 -- -- 21
2020-10-12 10:00:00 29.5 10 Sudeste 23 Sudeste 0 -- -- 24
2020-10-12 09:00:00 25.8 7 Sur 19 Sur 0 -- -- 28
2020-10-12 08:00:00 22.9 8 Sudoeste 16 Sur 0 -- -- 30
2020-10-12 07:00:00 21.7 7 Sudoeste 10 Sur 0 -- -- 32
2020-10-12 06:00:00 19 6 Sudoeste 10 Sudoeste 0 -- -- 46
2020-10-12 05:00:00 18 5 Sudoeste 9 Sur 0 -- -- 55
2020-10-12 04:00:00 17.6 4 Sudoeste 9 Sur 0 -- -- 65
2020-10-12 03:00:00 -- -- -- -- -- -- -- -- --
2020-10-12 02:00:00 14.3 2 Sudoeste 7 Oeste 0 -- -- 91
2020-10-12 01:00:00 15.6 2 Sudoeste 7 Oeste 0 -- -- 97
2020-10-12 00:00:00 16.3 3 Oeste 6 Oeste 0 -- -- 96
2020-10-11 23:00:00 17.3 2 Norte 6 Este 0 -- -- 97
2020-10-11 22:00:00 17.4 4 Nordeste 6 Sudoeste 0 -- -- 96
2020-10-11 21:00:00 17.4 0 Calma 8 Nordeste 0 -- -- 95
2020-10-11 20:00:00 -- -- -- -- -- -- -- -- --
2020-10-11 19:00:00 -- -- -- -- -- -- -- -- --
2020-10-11 18:00:00 18.9 6 Nordeste 12 Nordeste 0 -- -- 90
2020-10-11 17:00:00 21.3 8 Nordeste 13 Nordeste 0 -- -- 81
2020-10-11 16:00:00 21.2 6 Norte 16 Nordeste 0 -- -- 82
2020-10-11 15:00:00 21.9 9 Nordeste 18 Nordeste 0 -- -- 78
2020-10-11 14:00:00 22.9 8 Nordeste 17 Nordeste 0 -- -- 72
2020-10-11 13:00:00 22 8 Nordeste 16 Nordeste 0 -- -- 78
2020-10-11 12:00:00 21.9 5 Nordeste 12 Nordeste 0 -- -- 75
2020-10-11 11:00:00 19.6 5 Nordeste 10 Este 0 -- -- 84
2020-10-11 10:00:00 17.5 4 Nordeste 10 Norte 0 -- -- 93
2020-10-11 09:00:00 16.8 0 Calma 5 Sur 0 -- -- 96
2020-10-11 08:00:00 16.5 0 Calma 8 Este 0 -- -- 96
2020-10-11 07:00:00 16.3 3 Sur 8 Sudoeste 0 -- -- 95
2020-10-11 06:00:00 16.4 5 Este 12 Este 0 -- -- 96
2020-10-11 05:00:00 16.4 4 Norte 9 Norte 0 -- -- 95
2020-10-11 04:00:00 16.4 4 Noroeste 7 Noroeste 0 -- -- 94
2020-10-11 03:00:00 16.3 6 Noroeste 10 Nordeste 0 -- -- 94
2020-10-11 02:00:00 16.4 5 Noroeste 11 Nordeste 0 -- -- 96
2020-10-11 01:00:00 16.6 2 Oeste 9 Norte 0 -- -- 97
2020-10-11 00:00:00 16.4 2 Oeste 13 Norte 0 -- -- 97
2020-10-10 23:00:00 16.7 5 Norte 12 Nordeste 0 -- -- 96
2020-10-10 22:00:00 16.9 4 Norte 12 Norte 0 -- -- 96
2020-10-10 21:00:00 16.7 4 Norte 13 Nordeste 0 -- -- 96
2020-10-10 20:00:00 17.2 6 Nordeste 14 Nordeste 0 -- -- 94
2020-10-10 19:00:00 17.6 5 Norte 16 Norte 0 -- -- 85
2020-10-10 18:00:00 19.4 10 Norte 16 Norte 0 -- -- 79
2020-10-10 17:00:00 20 8 Norte 18 Nordeste 0 -- -- 78
2020-10-10 16:00:00 20.2 10 Norte 20 Nordeste 0 -- -- 77
2020-10-10 15:00:00 20.1 11 Norte 19 Norte 0 -- -- 79
2020-10-10 14:00:00 20.3 8 Nordeste 18 Nordeste 0 -- -- 79
2020-10-10 13:00:00 21.4 10 Nordeste 18 Norte 0 -- -- 78
2020-10-10 12:00:00 20.1 7 Nordeste 16 Norte 0 -- -- 80
2020-10-10 11:00:00 17.7 7 Norte 15 Nordeste 0 -- -- 88
2020-10-10 10:00:00 18 6 Norte 13 Norte 0 -- -- 94
2020-10-10 09:00:00 16.4 4 Nordeste 9 Norte 0 -- -- 98
2020-10-10 08:00:00 15.7 4 Noroeste 9 Norte 0 -- -- 97
2020-10-10 07:00:00 15.9 5 Noroeste 10 Norte 0 -- -- 97
2020-10-10 06:00:00 15.9 4 Oeste 11 Norte 0 -- -- 96
2020-10-10 05:00:00 16.3 7 Norte 14 Nordeste 0 -- -- 98
2020-10-10 04:00:00 16.4 3 Noroeste 14 Nordeste 0 -- -- 97
2020-10-10 03:00:00 16.4 7 Norte 17 Noroeste 0 -- -- 97
2020-10-10 02:00:00 17.1 6 Norte 14 Norte 0 -- -- 95
2020-10-10 01:00:00 16.9 6 Noroeste 14 Noroeste 0 -- -- 95
2020-10-10 00:00:00 16.6 6 Noroeste 15 Norte 0 -- -- 97
2020-10-09 23:00:00 17.1 7 Norte 17 Noroeste 0 -- -- 97
2020-10-09 22:00:00 17.3 6 Noroeste 14 Norte 0 -- -- 96
2020-10-09 21:00:00 16.8 5 Oeste 15 Norte 0 -- -- 97
2020-10-09 20:00:00 17.2 8 Norte 14 Norte 0 -- -- 97
2020-10-09 19:00:00 18 6 Noroeste 14 Norte 0 -- -- 94
2020-10-09 18:00:00 19.5 7 Noroeste 15 Noroeste 0 -- -- 87
2020-10-09 17:00:00 19.5 9 Norte 16 Norte 0 -- -- 87
2020-10-09 16:00:00 20.1 8 Noroeste 18 Norte 0 -- -- 87
2020-10-09 15:00:00 19.2 6 Norte 13 Norte 0 -- -- 90
2020-10-09 14:00:00 18.6 5 Norte 12 Norte 0 -- -- 92
2020-10-09 13:00:00 18.2 4 Norte 13 Norte 0 -- -- 98
2020-10-09 12:00:00 17.8 5 Nordeste 12 Norte 0 -- -- 98
2020-10-09 11:00:00 17.5 8 Norte 14 Norte 0.2 -- -- 99
2020-10-09 10:00:00 17.4 4 Norte 8 Sudoeste 0 -- -- 98
2020-10-09 09:00:00 17.1 6 Norte 12 Norte 0 -- -- 98
2020-10-09 08:00:00 17 4 Oeste 13 Oeste 0 -- -- 98
2020-10-09 07:00:00 17 4 Oeste 13 Noroeste 0 -- -- 98
2020-10-09 06:00:00 17.1 6 Noroeste 19 Oeste 0 -- -- 98
2020-10-09 05:00:00 17.2 0 Calma 16 Noroeste 0 -- -- 98
2020-10-09 04:00:00 17.1 6 Noroeste 13 Noroeste 0 -- -- 97
2020-10-09 03:00:00 17.1 5 Noroeste 11 Noroeste 0 -- -- 97
2020-10-09 02:00:00 15.1 4 Norte 12 Norte 0 -- -- 93
2020-10-09 01:00:00 14.9 0 Calma 5 Sudoeste 0 -- -- 89
2020-10-09 00:00:00 16.8 3 Noroeste 9 Oeste 0 -- -- 80
2020-10-08 23:00:00 17.9 7 Oeste 10 Oeste 0 -- -- 76
2020-10-08 22:00:00 17.6 5 Oeste 8 Oeste 0 -- -- 77
2020-10-08 21:00:00 17.4 4 Oeste 10 Noroeste 0 -- -- 82
2020-10-08 20:00:00 18.2 4 Sudoeste 6 Sudoeste 0 -- -- 82
2020-10-08 19:00:00 20.3 2 Sudoeste 6 Nordeste 0 -- -- 73
2020-10-08 18:00:00 24.9 4 Nordeste 10 Nordeste 0 -- -- 66
2020-10-08 17:00:00 24.8 6 Norte 13 Norte 0 -- -- 66
2020-10-08 16:00:00 25.4 6 Nordeste 16 Este 0 -- -- 54
2020-10-08 15:00:00 25.9 8 Nordeste 19 Nordeste 0 -- -- 55
2020-10-08 14:00:00 26.3 10 Nordeste 20 Nordeste 0 -- -- 52
2020-10-08 13:00:00 25.8 8 Nordeste 20 Nordeste 0 -- -- 48
2020-10-08 12:00:00 26.2 8 Este 15 Este 0 -- -- 39
2020-10-08 11:00:00 25.7 6 Este 11 Este 0 -- -- 39
2020-10-08 10:00:00 24.8 4 Este 8 Este 0 -- -- 36
2020-10-08 09:00:00 22.1 2 Sudeste 8 Oeste 0 -- -- 41
2020-10-08 08:00:00 16.3 6 Oeste 11 Oeste 0 -- -- 55
2020-10-08 07:00:00 15.8 4 Noroeste 10 Oeste 0 -- -- 50
2020-10-08 06:00:00 16 8 Oeste 11 Oeste 0 -- -- 41
2020-10-08 05:00:00 15.6 5 Oeste 9 Noroeste 0 -- -- 73
2020-10-08 04:00:00 16.6 2 Sur 8 Norte 0 -- -- 78
2020-10-08 03:00:00 17.2 3 Noroeste 7 Noroeste 0 -- -- 86
2020-10-08 02:00:00 17.7 2 Oeste 6 Sudoeste 0 -- -- 80
2020-10-08 01:00:00 18.4 4 Oeste 8 Oeste 0 -- -- 77
2020-10-08 00:00:00 18.9 6 Oeste 8 Oeste 0 -- -- 74
2020-10-07 23:00:00 18.1 4 Oeste 5 Oeste 0 -- -- 81
2020-10-07 22:00:00 18.7 3 Sudoeste 8 Oeste 0 -- -- 83
2020-10-07 21:00:00 19 3 Oeste 6 Oeste 0 -- -- 78
2020-10-07 20:00:00 19.3 3 Oeste 6 Oeste 0 -- -- 85
2020-10-07 19:00:00 22.9 0 Calma 7 Nordeste 0 -- -- 78
2020-10-07 18:00:00 24.8 4 Norte 9 Nordeste 0 -- -- 70
2020-10-07 17:00:00 24.8 4 Nordeste 17 Nordeste 0 -- -- 69
2020-10-07 16:00:00 25.9 5 Nordeste 13 Nordeste 0 -- -- 63
2020-10-07 15:00:00 25 7 Nordeste 13 Nordeste 0 -- -- 67
2020-10-07 14:00:00 24.6 8 Nordeste 14 Nordeste 0 -- -- 69
2020-10-07 13:00:00 24.9 8 Nordeste 17 Este 0 -- -- 68
2020-10-07 12:00:00 24.6 5 Este 11 Nordeste 0 -- -- 66
2020-10-07 11:00:00 26.8 6 Este 9 Este 0 -- -- 38
2020-10-07 10:00:00 24.2 3 Sudeste 6 Sur 0 -- -- 56
2020-10-07 09:00:00 22.6 2 Sudeste 6 Sudoeste 0 -- -- 33
2020-10-07 08:00:00 15.9 2 Oeste 9 Oeste 0 -- -- 48
2020-10-07 07:00:00 15.4 4 Oeste 10 Oeste 0 -- -- 60
2020-10-07 06:00:00 16.3 0 Calma 7 Oeste 0 -- -- 71
2020-10-07 05:00:00 16.2 3 Sudoeste 5 Sudoeste 0 -- -- 74
2020-10-07 04:00:00 16.6 3 Noroeste 8 Oeste 0 -- -- 77
2020-10-07 03:00:00 15.7 5 Sudoeste 8 Sudoeste 0 -- -- 83
2020-10-07 02:00:00 15.1 3 Sur 5 Sur 0 -- -- 92
2020-10-07 01:00:00 15.8 2 Sudoeste 9 Sudoeste 0 -- -- 99
2020-10-07 00:00:00 15.8 2 Sur 8 Sudoeste 0 -- -- 99
2020-10-06 23:00:00 16.2 3 Sudeste 7 Este 0 -- -- 99
2020-10-06 22:00:00 16.1 0 Calma 5 Oeste 0 -- -- 99
2020-10-06 21:00:00 16.4 0 Calma 4 Oeste 0 -- -- 99
2020-10-06 20:00:00 16.9 2 Sudeste 10 Nordeste 0 -- -- 99
2020-10-06 19:00:00 17.2 3 Sudeste 6 Nordeste 0 -- -- 98
2020-10-06 18:00:00 17 3 Nordeste 9 Nordeste 0 -- -- 98
2020-10-06 17:00:00 17.5 5 Norte 14 Norte 0.2 -- -- 98
2020-10-06 16:00:00 18.6 5 Nordeste 13 Este 0.2 -- -- 93
2020-10-06 15:00:00 18.2 4 Este 9 Sudeste 0.2 -- -- 94
2020-10-06 14:00:00 17.6 4 Este 12 Nordeste 0 -- -- 95
2020-10-06 13:00:00 17.8 5 Norte 9 Nordeste 0 -- -- 96
2020-10-06 12:00:00 16.9 4 Este 9 Este 0 -- -- 98
2020-10-06 11:00:00 16.5 3 Sudeste 7 Este 0 -- -- 98
2020-10-06 10:00:00 16.1 3 Este 10 Este 0 -- -- 100
2020-10-06 09:00:00 15.7 3 Sudeste 9 Sudeste 0 -- -- 100
2020-10-06 08:00:00 15.6 3 Este 13 Este 0 -- -- 100
2020-10-06 07:00:00 15.8 4 Sudeste 12 Sudeste 0.4 -- -- 100
2020-10-06 06:00:00 15.9 5 Este 13 Este 0.2 -- -- 100
2020-10-06 05:00:00 16.1 5 Este 14 Este 0.2 -- -- 100
2020-10-06 04:00:00 16.2 5 Este 13 Nordeste 0 -- -- 100
2020-10-06 03:00:00 16.3 6 Este 13 Este 0.2 -- -- 100
2020-10-06 02:00:00 16.4 6 Sudeste 15 Sudeste 0.4 -- -- 99
2020-10-06 01:00:00 16.5 8 Sudeste 14 Este 0 -- -- 99
2020-10-06 00:00:00 16.6 7 Este 17 Este 0 -- -- 99
2020-10-05 23:00:00 16.6 9 Sudeste 17 Sudeste 0 -- -- 98
2020-10-05 22:00:00 16.6 5 Sudeste 10 Sudeste 0 -- -- 97
2020-10-05 21:00:00 16.3 4 Sur 10 Este 0 -- -- 95
2020-10-05 20:00:00 16.6 6 Este 13 Nordeste 0 -- -- 94
2020-10-05 19:00:00 17.5 6 Este 15 Este 0 -- -- 87
2020-10-05 18:00:00 18.6 8 Nordeste 20 Este 0 -- -- 77
2020-10-05 17:00:00 18.8 9 Este 21 Este 0 -- -- 78
2020-10-05 16:00:00 18.6 10 Nordeste 19 Este 0 -- -- 81
2020-10-05 15:00:00 18.9 9 Este 22 Este 0 -- -- 82
2020-10-05 14:00:00 19.5 10 Nordeste 23 Nordeste 0 -- -- 78
2020-10-05 13:00:00 19.9 13 Nordeste 19 Nordeste 0 -- -- 81
2020-10-05 12:00:00 18.9 9 Este 18 Este 0 -- -- 89
2020-10-05 11:00:00 17.9 6 Este 11 Sudeste 0.2 -- -- 88
2020-10-05 10:00:00 16.6 5 Sudeste 16 Este 0 -- -- 98
2020-10-05 09:00:00 16.2 4 Sudoeste 9 Sudeste 0 -- -- 96
2020-10-05 08:00:00 15.6 5 Sudeste 13 Sudeste 0 -- -- 98
2020-10-05 07:00:00 15.8 3 Sudeste 11 Sudeste 0.2 -- -- 98
2020-10-05 06:00:00 15.7 4 Sur 13 Este 0.2 -- -- 97
2020-10-05 05:00:00 15.6 5 Sur 11 Sur 0 -- -- 96
2020-10-05 04:00:00 15.2 3 Sudoeste 9 Sudoeste 0 -- -- 97
2020-10-05 03:00:00 15.4 5 Sudoeste 8 Sur 0 -- -- 97
2020-10-05 02:00:00 15.6 3 Sur 10 Sudeste 0.2 -- -- 97
2020-10-05 01:00:00 15.8 4 Sur 13 Sudoeste 0 -- -- 95
2020-10-05 00:00:00 15.6 6 Sudoeste 10 Sudoeste 0 -- -- 96
2020-10-04 23:00:00 15.7 2 Nordeste 10 Oeste 0.6 -- -- 97
2020-10-04 22:00:00 15.6 2 Sur 10 Sudoeste 0.2 -- -- 96
2020-10-04 21:00:00 15.9 2 Nordeste 16 Nordeste 0 -- -- 95
2020-10-04 20:00:00 16.1 7 Noroeste 20 Norte 0 -- -- 95
2020-10-04 19:00:00 16.7 4 Noroeste 19 Norte 0 -- -- 91
2020-10-04 18:00:00 17.4 8 Norte 20 Norte 0 -- -- 90
2020-10-04 17:00:00 17.4 10 Norte 21 Norte 0 -- -- 92
2020-10-04 16:00:00 18.4 8 Norte 19 Norte 0 -- -- 88
2020-10-04 15:00:00 17.3 9 Norte 20 Norte 0.2 -- -- 97
2020-10-04 14:00:00 17.2 10 Norte 20 Norte 1.6 -- -- 99
2020-10-04 13:00:00 17.2 14 Norte 25 Norte 2 -- -- 98
2020-10-04 12:00:00 17.8 8 Nordeste 20 Norte 3.4 -- -- 99
2020-10-04 11:00:00 17.8 14 Nordeste 27 Este 5 -- -- 99
2020-10-04 10:00:00 17.6 11 Norte 18 Norte 1.6 -- -- 99
2020-10-04 09:00:00 16.4 6 Noroeste 18 Noroeste 0 -- -- 99
2020-10-04 08:00:00 16.7 10 Noroeste 26 Noroeste 0.2 -- -- 100
2020-10-04 07:00:00 17.2 10 Norte 23 Norte 2.4 -- -- 99
2020-10-04 06:00:00 17.2 5 Noroeste 20 Noroeste 0.4 -- -- 99
2020-10-04 05:00:00 16.9 5 Oeste 19 Noroeste 0.8 -- -- 99
2020-10-04 04:00:00 16.8 8 Noroeste 21 Norte 0.6 -- -- 99
2020-10-04 03:00:00 17 9 Norte 22 Noroeste 1.4 -- -- 99
2020-10-04 02:00:00 16.8 3 Noroeste 19 Oeste 0.8 -- -- 97
2020-10-04 01:00:00 16.3 6 Noroeste 14 Oeste 0.2 -- -- 97
2020-10-04 00:00:00 15.9 4 Oeste 16 Noroeste 0 -- -- 99
2020-10-03 23:00:00 16.9 9 Norte 16 Norte 0.2 -- -- 99
2020-10-03 22:00:00 16.7 5 Noroeste 15 Norte 0.2 -- -- 98
2020-10-03 21:00:00 16.9 7 Norte 20 Noroeste 0.4 -- -- 98
2020-10-03 20:00:00 16.8 8 Noroeste 17 Norte 0 -- -- 98
2020-10-03 19:00:00 17.2 12 Noroeste 21 Noroeste 0.2 -- -- 97
2020-10-03 18:00:00 17.5 8 Norte 22 Norte 0.2 -- -- 98
2020-10-03 17:00:00 17.4 12 Norte 23 Norte 1.8 -- -- 99
2020-10-03 16:00:00 18 13 Norte 25 Noroeste 1.2 -- -- 97
2020-10-03 15:00:00 18 10 Norte 23 Noroeste 1 -- -- 97
2020-10-03 14:00:00 18.4 12 Norte 26 Noroeste 1.4 -- -- 96
2020-10-03 13:00:00 17.8 14 Noroeste 24 Norte 1 -- -- 97
2020-10-03 12:00:00 17.1 12 Noroeste 26 Noroeste 1.6 -- -- 97
2020-10-03 11:00:00 16.8 10 Norte 18 Norte 1.4 -- -- 97
2020-10-03 10:00:00 16.9 7 Noroeste 23 Noroeste 0.2 -- -- 92
2020-10-03 09:00:00 15.9 12 Norte 25 Noroeste 2.2 -- -- 98
2020-10-03 08:00:00 16.4 9 Noroeste 21 Noroeste 0 -- -- 94
2020-10-03 07:00:00 16 8 Noroeste 20 Oeste 0.2 -- -- 95
2020-10-03 06:00:00 15.7 8 Noroeste 22 Norte 0 -- -- 91
2020-10-03 05:00:00 15.8 8 Noroeste 23 Norte 0.2 -- -- 97
2020-10-03 04:00:00 16.3 9 Noroeste 22 Noroeste 0 -- -- 96
2020-10-03 03:00:00 15.9 7 Noroeste 20 Noroeste 0.2 -- -- 91
2020-10-03 02:00:00 15.7 7 Noroeste 21 Norte 0 -- -- 94
2020-10-03 01:00:00 16 12 Norte 25 Norte 0.2 -- -- 97
2020-10-03 00:00:00 15.8 11 Noroeste 29 Noroeste 0 -- -- 99
2020-10-02 23:00:00 16.3 13 Norte 24 Norte 0.4 -- -- 99
2020-10-02 22:00:00 16.5 11 Norte 26 Norte 0 -- -- 99
2020-10-02 21:00:00 16.7 14 Norte 28 Norte 0 -- -- 99
2020-10-02 20:00:00 16.4 11 Norte 40 Norte 0.6 -- -- 99
2020-10-02 19:00:00 16.4 15 Norte 26 Norte 2 -- -- 98
2020-10-02 18:00:00 16.8 7 Noroeste 23 Oeste 0.2 -- -- 97
2020-10-02 17:00:00 16.8 9 Noroeste 28 Norte 2.2 -- -- 96
2020-10-02 16:00:00 17.3 11 Noroeste 24 Norte 0.4 -- -- 94
2020-10-02 15:00:00 20.1 9 Noroeste 25 Norte 0 -- -- 74
2020-10-02 14:00:00 18.8 13 Norte 24 Norte 0 -- -- 81
2020-10-02 13:00:00 18.7 12 Noroeste 23 Nordeste 0 -- -- 78
2020-10-02 12:00:00 18 10 Norte 19 Norte 0 -- -- 80
2020-10-02 11:00:00 17.4 9 Norte 18 Norte 0 -- -- 80
2020-10-02 10:00:00 15.7 6 Norte 18 Norte 0 -- -- 88
2020-10-02 09:00:00 15.3 9 Norte 29 Noroeste 0.2 -- -- 92
2020-10-02 08:00:00 14.9 6 Noroeste 15 Noroeste 0 -- -- 96
2020-10-02 07:00:00 14.9 6 Noroeste 13 Noroeste 0 -- -- 98
2020-10-02 06:00:00 15 6 Noroeste 21 Norte 0.6 -- -- 98
2020-10-02 05:00:00 15.7 4 Norte 20 Norte 0.6 -- -- 98
2020-10-02 04:00:00 15.5 12 Norte 22 Norte 0.2 -- -- 97
2020-10-02 03:00:00 15.7 10 Norte 24 Norte 0 -- -- 95
2020-10-02 02:00:00 16 4 Noroeste 11 Norte 0 -- -- 92
2020-10-02 01:00:00 15.7 3 Oeste 17 Noroeste 0 -- -- 94
2020-10-02 00:00:00 16.4 7 Norte 26 Norte 0.2 -- -- 97
2020-10-01 23:00:00 16.6 7 Norte 20 Norte 0.2 -- -- 96
2020-10-01 22:00:00 16.8 6 Noroeste 15 Norte 0 -- -- 88
2020-10-01 21:00:00 16.9 5 Norte 15 Noroeste 0 -- -- 86
2020-10-01 20:00:00 17 8 Norte 16 Noroeste 0 -- -- 90
2020-10-01 19:00:00 17.4 5 Norte 15 Norte 0 -- -- 86
2020-10-01 18:00:00 18.5 8 Norte 20 Norte 0 -- -- 80
2020-10-01 17:00:00 18.4 13 Norte 21 Norte 0 -- -- 82
2020-10-01 16:00:00 18.9 11 Norte 21 Norte 0 -- -- 79
2020-10-01 15:00:00 19.6 12 Norte 21 Norte 0 -- -- 68
2020-10-01 14:00:00 20.4 10 Norte 25 Norte 0 -- -- 70
2020-10-01 13:00:00 20 9 Norte 19 Norte 0 -- -- 67
2020-10-01 12:00:00 18.2 9 Norte 17 Norte 0 -- -- 80
2020-10-01 11:00:00 16.7 6 Norte 14 Norte 0 -- -- 93
2020-10-01 10:00:00 17 6 Norte 19 Norte 0 -- -- 90
2020-10-01 09:00:00 16.2 8 Noroeste 17 Norte 0.2 -- -- 96
2020-10-01 08:00:00 16.1 6 Noroeste 15 Noroeste 0 -- -- 92
2020-10-01 07:00:00 15.9 7 Noroeste 13 Noroeste 0 -- -- 95
2020-10-01 06:00:00 16 5 Noroeste 13 Noroeste 0 -- -- 93
2020-10-01 05:00:00 15.5 3 Oeste 12 Noroeste 0 -- -- 92
2020-10-01 04:00:00 15.1 4 Oeste 8 Oeste 0 -- -- 92
2020-10-01 03:00:00 14.7 4 Oeste 9 Oeste 0 -- -- 93
2020-10-01 02:00:00 15.1 5 Noroeste 9 Noroeste 0 -- -- 92
2020-10-01 01:00:00 16.2 6 Noroeste 14 Noroeste 0 -- -- 92
2020-10-01 00:00:00 16 7 Noroeste 14 Noroeste 0 -- -- 91
2020-09-30 23:00:00 15.8 6 Noroeste 12 Noroeste 0 -- -- 92
2020-09-30 22:00:00 16.2 2 Norte 11 Noroeste 0 -- -- 93
2020-09-30 21:00:00 15 6 Oeste 10 Oeste 0 -- -- 89
2020-09-30 20:00:00 16.7 5 Norte 16 Norte 0 -- -- 92
2020-09-30 19:00:00 17.4 6 Norte 16 Noroeste 0 -- -- 89
2020-09-30 18:00:00 17.6 9 Norte 19 Nordeste 0 -- -- 84
2020-09-30 17:00:00 17.7 11 Norte 18 Norte 0 -- -- 86
2020-09-30 16:00:00 18.7 9 Norte 22 Norte 0 -- -- 81
2020-09-30 15:00:00 20 10 Norte 20 Norte 0 -- -- 72
2020-09-30 14:00:00 20.7 10 Norte 22 Norte 0 -- -- 69
2020-09-30 13:00:00 19.9 10 Norte 19 Norte 0 -- -- 70
2020-09-30 12:00:00 22.2 11 Nordeste 22 Norte 0 -- -- 61
2020-09-30 11:00:00 19.4 6 Norte 17 Norte 0 -- -- 71
2020-09-30 10:00:00 18 5 Norte 13 Nordeste 0 -- -- 79
2020-09-30 09:00:00 16.4 4 Norte 9 Oeste 0 -- -- 90
2020-09-30 08:00:00 14.1 5 Oeste 10 Oeste 0 -- -- 96
2020-09-30 07:00:00 15.5 3 Oeste 11 Norte 0 -- -- 96
2020-09-30 06:00:00 15.7 4 Norte 10 Norte 0 -- -- 96
2020-09-30 05:00:00 14.5 3 Oeste 7 Oeste 0 -- -- 97
2020-09-30 04:00:00 14.8 4 Oeste 7 Oeste 0 -- -- 96
2020-09-30 03:00:00 14.1 3 Oeste 8 Noroeste 0 -- -- 96
2020-09-30 02:00:00 14.6 3 Oeste 9 Noroeste 0 -- -- 94
2020-09-30 01:00:00 15.5 5 Noroeste 7 Oeste 0 -- -- 96
2020-09-30 00:00:00 15.7 4 Noroeste 13 Noroeste 0 -- -- 95